Wetterdaten: aktuell Mittwoch, 08.04.2020 17:30
Datum Zeit Temperatur Bodentemp. Luftfeuchte Luftdruck Niederschlag Windgeschw. Windrichtung Windrichtung Sonnenschein Nieder.dauer Evapotrans. Solarstrahl. Taupunkt Windchill Windböen
08.04.2020 17:30 19,8 °C 18,9 °C 48 % 1021,8 hPa 0,0 l/m² 0,0 km/h (0 Bft) N 0 ° 57 min 0 min 0 mm 234 W/m² 8,5 °C 19,8 °C 0,0 km/h (0 Bft)
08.04.2020 16:30 20,9 °C 20,0 °C 47 % 1022,1 hPa 0,0 l/m² 0,0 km/h (0 Bft) N 0 ° 60 min 0 min 0 mm 360 W/m² 9,2 °C 20,9 °C 0,0 km/h (0 Bft)
08.04.2020 15:30 20,9 °C 19,4 °C 45 % 1022,8 hPa 0,0 l/m² 0,0 km/h (0 Bft) N 0 ° 60 min 0 min 0 mm 578 W/m² 8,5 °C 20,9 °C 0,0 km/h (0 Bft)
08.04.2020 14:30 20,6 °C 18,9 °C 46 % 1023,4 hPa 0,0 l/m² 0,0 km/h (0 Bft) S-SW 202 ° 60 min 0 min 0 mm 652 W/m² 8,6 °C 20,6 °C 1,8 km/h (1 Bft)
08.04.2020 13:30 19,5 °C 17,2 °C 50 % 1024,0 hPa 0,0 l/m² 0,0 km/h (0 Bft) S-SW 202 ° 58 min 0 min 0 mm 707 W/m² 8,8 °C 19,5 °C 3,6 km/h (1 Bft)
08.04.2020 12:30 18,1 °C 16,7 °C 51 % 1024,9 hPa 0,0 l/m² 0,0 km/h (0 Bft) S-SW 202 ° 60 min 0 min 0 mm 603 W/m² 7,8 °C 18,1 °C 1,8 km/h (1 Bft)
08.04.2020 11:30 16,6 °C 15,0 °C 51 % 1025,9 hPa 0,0 l/m² 0,0 km/h (0 Bft) SO 135 ° 60 min 0 min 0 mm 610 W/m² 6,4 °C 16,6 °C 1,8 km/h (1 Bft)
08.04.2020 10:30 13,9 °C 12,2 °C 51 % 1026,5 hPa 0,0 l/m² 1,8 km/h (1 Bft) S-SO 157 ° 60 min 0 min 0 mm 445 W/m² 3,9 °C 13,9 °C 7,2 km/h (2 Bft)
08.04.2020 09:30 12,4 °C 10,6 °C 50 % 1027,5 hPa 0,0 l/m² 3,6 km/h (1 Bft) S-SO 157 ° 35 min 0 min 0 mm 408 W/m² 2,3 °C 12,4 °C 9,0 km/h (2 Bft)
08.04.2020 08:30 8,7 °C 8,3 °C 71 % 1028,0 hPa 0,0 l/m² 0,0 km/h (0 Bft) N 0 ° 16 min 0 min 0 mm 151 W/m² 3,7 °C 8,7 °C 0,0 km/h (0 Bft)
08.04.2020 07:30 7,0 °C 5,6 °C 75 % 1028,3 hPa 0,0 l/m² 0,0 km/h (0 Bft) N 0 ° 0 min 0 min 0 mm 47 W/m² 2,9 °C 7,0 °C 0,0 km/h (0 Bft)
08.04.2020 06:30 6,2 °C 4,4 °C 79 % 1029,1 hPa 0,0 l/m² 0,0 km/h (0 Bft) N 0 ° 0 min 0 min 0 mm 5 W/m² 2,8 °C 6,2 °C 0,0 km/h (0 Bft)
08.04.2020 05:30 5,9 °C 3,9 °C 79 % 1029,6 hPa 0,0 l/m² 0,0 km/h (0 Bft) N 0 ° 0 min 0 min 0 mm 0 W/m² 2,5 °C 5,9 °C 0,0 km/h (0 Bft)
08.04.2020 04:30 6,4 °C 4,4 °C 76 % 1030,1 hPa 0,0 l/m² 0,0 km/h (0 Bft) N 0 ° 0 min 0 min 0 mm 0 W/m² 2,5 °C 6,4 °C 0,0 km/h (0 Bft)
08.04.2020 03:30 5,5 °C 3,3 °C 80 % 1030,3 hPa 0,0 l/m² 0,0 km/h (0 Bft) N 0 ° 0 min 0 min 0 mm 0 W/m² 2,3 °C 5,5 °C 0,0 km/h (0 Bft)
08.04.2020 02:30 5,1 °C 3,3 °C 82 % 1031,0 hPa 0,0 l/m² 0,0 km/h (0 Bft) N 0 ° 0 min 0 min 0 mm 0 W/m² 2,3 °C 5,1 °C 0,0 km/h (0 Bft)
08.04.2020 01:30 5,9 °C 3,9 °C 80 % 1031,5 hPa 0,0 l/m² 0,0 km/h (0 Bft) N 0 ° 0 min 0 min 0 mm 0 W/m² 2,7 °C 5,9 °C 0,0 km/h (0 Bft)
08.04.2020 00:30 7,0 °C 5,0 °C 76 % 1031,6 hPa 0,0 l/m² 0,0 km/h (0 Bft) N 0 ° 0 min 0 min 0 mm 0 W/m² 3,1 °C 7,0 °C 0,0 km/h (0 Bft)
07.04.2020 23:30 7,9 °C 5,6 °C 74 % 1031,7 hPa 0,0 l/m² 0,0 km/h (0 Bft) N 0 ° 0 min 0 min 0 mm 0 W/m² 3,6 °C 7,9 °C 0,0 km/h (0 Bft)
07.04.2020 22:30 9,7 °C 7,2 °C 67 % 1031,9 hPa 0,0 l/m² 0,0 km/h (0 Bft) N 0 ° 0 min 0 min 0 mm 0 W/m² 3,9 °C 9,7 °C 0,0 km/h (0 Bft)
07.04.2020 21:30 10,8 °C 7,8 °C 65 % 1032,1 hPa 0,0 l/m² 0,0 km/h (0 Bft) N 0 ° 0 min 0 min 0 mm 0 W/m² 4,5 °C 10,8 °C 0,0 km/h (0 Bft)
07.04.2020 20:30 11,8 °C 8,9 °C 59 % 1031,7 hPa 0,0 l/m² 0,0 km/h (0 Bft) N 0 ° 7 min 0 min 0 mm 0 W/m² 4,1 °C 11,8 °C 0,0 km/h (0 Bft)
07.04.2020 19:30 14,1 °C 11,7 °C 52 % 1031,5 hPa 0,0 l/m² 0,0 km/h (0 Bft) N 0 ° 31 min 0 min 0 mm 37 W/m² 4,4 °C 14,1 °C 0,0 km/h (0 Bft)
07.04.2020 18:30 15,9 °C 14,4 °C 40 % 1031,5 hPa 0,0 l/m² 0,0 km/h (0 Bft) N 0 ° 30 min 0 min 0 mm 188 W/m² 2,3 °C 15,9 °C 0,0 km/h (0 Bft)
07.04.2020 18:00 16,3 °C 15,0 °C 40 % 1031,5 hPa 0,0 l/m² 0,0 km/h (0 Bft) N 0 ° 0 min 0 min 0 mm 260 W/m² 2,7 °C 16,3 °C 0,0 km/h (0 Bft)
_ Min-Zeit 02:46 02:42 18:07 17:00 - 18:00 - - - - - - 18:35 02:46 18:00
Minimum _ 4,9 °C 2,8 °C 36 % 1021,8 hPa - 0,0 km/h (0 Bft) - - - - - - 0,8 °C 4,9 °C 0,0 km/h (0 Bft)
_ Max-Zeit 15:50 15:40 02:05 21:30 18:00 14:04 - - 18:00 18:00 14:00 13:38 15:52 15:50 14:04
Maximum _ 21,3 °C 20,0 °C 83 % 1032,1 hPa 0,0 l/m² 7,2 km/h
SW (2 Bft)
- - 1 min 0 min 0 mm 724 W/m² 9,8 °C 21,3 °C 19,7 km/h
S-SW (3 Bft)
Durchschnitt _ 12,3 °C 10,5 °C 61 % 1028,7 hPa #0,0 l/m² 0,4 km/h (0 Bft) S - #8:46 h #0 min. #2,565 mm 425 W/m² 4,4 °C 12,3 °C 1,3 km/h (1 Bft)